sensor_id;sensor_type;location;lat;lon;timestamp;P1;durP1;ratioP1;P2;durP2;ratioP2
10134;SDS011;5107;48.850;8.924;2022-08-19T00:00:36;15.77;;;11.90;;
10134;SDS011;5107;48.850;8.924;2022-08-19T00:03:04;15.23;;;11.90;;
10134;SDS011;5107;48.850;8.924;2022-08-19T00:05:32;14.60;;;11.87;;
10134;SDS011;5107;48.850;8.924;2022-08-19T00:08:00;14.75;;;12.48;;
10134;SDS011;5107;48.850;8.924;2022-08-19T00:10:27;16.52;;;13.38;;
10134;SDS011;5107;48.850;8.924;2022-08-19T00:12:55;13.77;;;12.07;;
10134;SDS011;5107;48.850;8.924;2022-08-19T00:15:22;17.50;;;13.17;;
10134;SDS011;5107;48.850;8.924;2022-08-19T00:17:50;19.40;;;13.50;;
10134;SDS011;5107;48.850;8.924;2022-08-19T00:20:18;16.17;;;13.10;;
10134;SDS011;5107;48.850;8.924;2022-08-19T00:22:47;16.20;;;13.20;;
10134;SDS011;5107;48.850;8.924;2022-08-19T00:25:15;17.23;;;13.60;;
10134;SDS011;5107;48.850;8.924;2022-08-19T00:27:43;17.47;;;14.13;;
10134;SDS011;5107;48.850;8.924;2022-08-19T00:30:11;15.70;;;13.50;;
10134;SDS011;5107;48.850;8.924;2022-08-19T00:32:38;15.97;;;12.97;;
10134;SDS011;5107;48.850;8.924;2022-08-19T00:35:07;17.90;;;13.80;;
10134;SDS011;5107;48.850;8.924;2022-08-19T00:37:36;15.50;;;13.17;;
10134;SDS011;5107;48.850;8.924;2022-08-19T00:40:09;18.47;;;14.20;;
10134;SDS011;5107;48.850;8.924;2022-08-19T00:42:38;18.67;;;14.87;;
10134;SDS011;5107;48.850;8.924;2022-08-19T00:45:11;17.77;;;14.53;;
10134;SDS011;5107;48.850;8.924;2022-08-19T00:47:42;18.67;;;14.27;;
10134;SDS011;5107;48.850;8.924;2022-08-19T00:50:12;18.77;;;14.70;;
10134;SDS011;5107;48.850;8.924;2022-08-19T00:52:44;17.67;;;14.67;;
10134;SDS011;5107;48.850;8.924;2022-08-19T00:55:18;18.03;;;14.50;;
10134;SDS011;5107;48.850;8.924;2022-08-19T00:57:48;16.67;;;14.57;;
10134;SDS011;5107;48.850;8.924;2022-08-19T01:00:21;20.33;;;14.77;;
10134;SDS011;5107;48.850;8.924;2022-08-19T01:02:51;20.67;;;15.30;;
10134;SDS011;5107;48.850;8.924;2022-08-19T01:05:21;19.73;;;15.03;;
10134;SDS011;5107;48.850;8.924;2022-08-19T01:07:53;19.10;;;15.43;;
10134;SDS011;5107;48.850;8.924;2022-08-19T01:10:23;18.47;;;15.20;;
10134;SDS011;5107;48.850;8.924;2022-08-19T01:12:54;19.03;;;15.20;;
10134;SDS011;5107;48.850;8.924;2022-08-19T01:15:25;18.73;;;14.93;;
10134;SDS011;5107;48.850;8.924;2022-08-19T01:17:57;20.23;;;15.07;;
10134;SDS011;5107;48.850;8.924;2022-08-19T01:20:31;19.57;;;15.47;;
10134;SDS011;5107;48.850;8.924;2022-08-19T01:23:00;18.90;;;15.37;;
10134;SDS011;5107;48.850;8.924;2022-08-19T01:25:29;18.70;;;14.97;;
10134;SDS011;5107;48.850;8.924;2022-08-19T01:28:02;20.20;;;15.93;;
10134;SDS011;5107;48.850;8.924;2022-08-19T01:30:30;17.90;;;14.60;;
10134;SDS011;5107;48.850;8.924;2022-08-19T01:33:00;24.37;;;16.40;;
10134;SDS011;5107;48.850;8.924;2022-08-19T01:35:30;22.27;;;16.50;;
10134;SDS011;5107;48.850;8.924;2022-08-19T01:37:59;22.50;;;16.87;;
10134;SDS011;5107;48.850;8.924;2022-08-19T01:40:32;17.67;;;15.10;;
10134;SDS011;5107;48.850;8.924;2022-08-19T01:43:02;20.47;;;15.87;;
10134;SDS011;5107;48.850;8.924;2022-08-19T01:45:30;20.47;;;16.67;;
10134;SDS011;5107;48.850;8.924;2022-08-19T01:48:00;19.77;;;14.90;;
10134;SDS011;5107;48.850;8.924;2022-08-19T01:50:27;22.93;;;16.33;;
10134;SDS011;5107;48.850;8.924;2022-08-19T01:52:56;19.37;;;15.80;;
10134;SDS011;5107;48.850;8.924;2022-08-19T01:55:26;24.10;;;17.37;;
10134;SDS011;5107;48.850;8.924;2022-08-19T01:57:54;21.10;;;16.23;;
10134;SDS011;5107;48.850;8.924;2022-08-19T02:00:27;22.23;;;16.23;;
10134;SDS011;5107;48.850;8.924;2022-08-19T02:02:57;19.90;;;16.20;;
10134;SDS011;5107;48.850;8.924;2022-08-19T02:05:24;20.00;;;15.67;;
10134;SDS011;5107;48.850;8.924;2022-08-19T02:07:54;20.97;;;16.40;;
10134;SDS011;5107;48.850;8.924;2022-08-19T02:10:22;22.50;;;17.63;;
10134;SDS011;5107;48.850;8.924;2022-08-19T02:12:51;18.83;;;16.03;;
10134;SDS011;5107;48.850;8.924;2022-08-19T02:15:18;21.23;;;16.57;;
10134;SDS011;5107;48.850;8.924;2022-08-19T02:17:47;22.17;;;16.47;;
10134;SDS011;5107;48.850;8.924;2022-08-19T02:20:14;21.03;;;16.37;;
10134;SDS011;5107;48.850;8.924;2022-08-19T02:22:42;20.60;;;17.37;;
10134;SDS011;5107;48.850;8.924;2022-08-19T02:25:10;22.07;;;17.07;;
10134;SDS011;5107;48.850;8.924;2022-08-19T02:27:39;21.17;;;17.33;;
10134;SDS011;5107;48.850;8.924;2022-08-19T02:30:10;19.80;;;16.43;;
10134;SDS011;5107;48.850;8.924;2022-08-19T02:32:40;20.27;;;16.73;;
10134;SDS011;5107;48.850;8.924;2022-08-19T02:35:08;21.53;;;17.43;;
10134;SDS011;5107;48.850;8.924;2022-08-19T02:37:36;24.27;;;18.77;;
10134;SDS011;5107;48.850;8.924;2022-08-19T02:40:21;21.43;;;17.23;;
10134;SDS011;5107;48.850;8.924;2022-08-19T02:42:48;23.87;;;18.23;;
10134;SDS011;5107;48.850;8.924;2022-08-19T02:45:17;27.17;;;19.17;;
10134;SDS011;5107;48.850;8.924;2022-08-19T02:47:44;24.13;;;18.90;;
10134;SDS011;5107;48.850;8.924;2022-08-19T02:50:11;23.33;;;18.30;;
10134;SDS011;5107;48.850;8.924;2022-08-19T02:52:39;23.57;;;18.90;;
10134;SDS011;5107;48.850;8.924;2022-08-19T02:55:07;24.17;;;18.70;;
10134;SDS011;5107;48.850;8.924;2022-08-19T02:57:34;25.47;;;19.10;;
10134;SDS011;5107;48.850;8.924;2022-08-19T03:00:04;22.80;;;17.57;;
10134;SDS011;5107;48.850;8.924;2022-08-19T03:02:35;24.97;;;18.40;;
10134;SDS011;5107;48.850;8.924;2022-08-19T03:05:02;22.37;;;17.50;;
10134;SDS011;5107;48.850;8.924;2022-08-19T03:07:31;22.77;;;17.97;;
10134;SDS011;5107;48.850;8.924;2022-08-19T03:09:58;23.03;;;18.97;;
10134;SDS011;5107;48.850;8.924;2022-08-19T03:12:25;23.00;;;18.57;;
10134;SDS011;5107;48.850;8.924;2022-08-19T03:14:52;27.77;;;19.40;;
10134;SDS011;5107;48.850;8.924;2022-08-19T03:17:19;24.00;;;18.77;;
10134;SDS011;5107;48.850;8.924;2022-08-19T03:19:48;24.80;;;19.57;;
10134;SDS011;5107;48.850;8.924;2022-08-19T03:22:15;24.50;;;20.13;;
10134;SDS011;5107;48.850;8.924;2022-08-19T03:24:42;26.00;;;19.90;;
10134;SDS011;5107;48.850;8.924;2022-08-19T03:27:09;22.57;;;19.17;;
10134;SDS011;5107;48.850;8.924;2022-08-19T03:29:37;25.50;;;20.37;;
10134;SDS011;5107;48.850;8.924;2022-08-19T03:32:05;24.63;;;19.87;;
10134;SDS011;5107;48.850;8.924;2022-08-19T03:34:33;26.80;;;20.77;;
10134;SDS011;5107;48.850;8.924;2022-08-19T03:37:05;25.63;;;20.67;;
10134;SDS011;5107;48.850;8.924;2022-08-19T03:39:35;23.93;;;19.93;;
10134;SDS011;5107;48.850;8.924;2022-08-19T03:42:04;26.30;;;20.13;;
10134;SDS011;5107;48.850;8.924;2022-08-19T03:44:32;26.10;;;20.07;;
10134;SDS011;5107;48.850;8.924;2022-08-19T03:47:01;28.50;;;21.10;;
10134;SDS011;5107;48.850;8.924;2022-08-19T03:49:29;23.00;;;18.23;;
10134;SDS011;5107;48.850;8.924;2022-08-19T03:52:00;23.73;;;19.63;;
10134;SDS011;5107;48.850;8.924;2022-08-19T03:54:31;23.97;;;20.07;;
10134;SDS011;5107;48.850;8.924;2022-08-19T03:57:00;24.00;;;19.37;;
10134;SDS011;5107;48.850;8.924;2022-08-19T03:59:30;24.07;;;20.00;;
10134;SDS011;5107;48.850;8.924;2022-08-19T04:02:01;24.47;;;20.40;;
10134;SDS011;5107;48.850;8.924;2022-08-19T04:04:34;24.60;;;19.20;;
10134;SDS011;5107;48.850;8.924;2022-08-19T04:07:02;23.37;;;18.87;;
10134;SDS011;5107;48.850;8.924;2022-08-19T04:09:29;23.87;;;19.23;;
10134;SDS011;5107;48.850;8.924;2022-08-19T04:11:59;26.80;;;19.63;;
10134;SDS011;5107;48.850;8.924;2022-08-19T04:14:28;25.23;;;19.43;;
10134;SDS011;5107;48.850;8.924;2022-08-19T04:16:57;24.13;;;19.37;;
10134;SDS011;5107;48.850;8.924;2022-08-19T04:19:26;24.30;;;19.90;;
10134;SDS011;5107;48.850;8.924;2022-08-19T04:21:55;24.20;;;19.43;;
10134;SDS011;5107;48.850;8.924;2022-08-19T04:24:23;27.83;;;20.77;;
10134;SDS011;5107;48.850;8.924;2022-08-19T04:26:51;24.97;;;20.90;;
10134;SDS011;5107;48.850;8.924;2022-08-19T04:29:20;24.97;;;20.53;;
10134;SDS011;5107;48.850;8.924;2022-08-19T04:31:52;24.83;;;20.20;;
10134;SDS011;5107;48.850;8.924;2022-08-19T04:34:22;25.40;;;20.80;;
10134;SDS011;5107;48.850;8.924;2022-08-19T04:36:52;25.77;;;20.87;;
10134;SDS011;5107;48.850;8.924;2022-08-19T04:39:22;27.90;;;21.67;;
10134;SDS011;5107;48.850;8.924;2022-08-19T04:42:14;27.03;;;21.10;;
10134;SDS011;5107;48.850;8.924;2022-08-19T04:44:59;26.40;;;21.07;;
10134;SDS011;5107;48.850;8.924;2022-08-19T04:47:27;25.67;;;20.13;;
10134;SDS011;5107;48.850;8.924;2022-08-19T04:49:56;25.53;;;21.73;;
10134;SDS011;5107;48.850;8.924;2022-08-19T04:52:23;27.83;;;22.23;;
10134;SDS011;5107;48.850;8.924;2022-08-19T04:54:50;26.13;;;21.50;;
10134;SDS011;5107;48.850;8.924;2022-08-19T04:57:19;26.13;;;21.10;;
10134;SDS011;5107;48.850;8.924;2022-08-19T04:59:46;26.03;;;21.03;;
10134;SDS011;5107;48.850;8.924;2022-08-19T05:02:13;26.07;;;21.50;;
10134;SDS011;5107;48.850;8.924;2022-08-19T05:04:40;27.17;;;21.93;;
10134;SDS011;5107;48.850;8.924;2022-08-19T05:07:08;25.77;;;21.90;;
10134;SDS011;5107;48.850;8.924;2022-08-19T05:09:35;25.63;;;21.10;;
10134;SDS011;5107;48.850;8.924;2022-08-19T05:12:02;27.20;;;20.80;;
10134;SDS011;5107;48.850;8.924;2022-08-19T05:14:32;27.93;;;19.97;;
10134;SDS011;5107;48.850;8.924;2022-08-19T05:17:01;25.87;;;20.70;;
10134;SDS011;5107;48.850;8.924;2022-08-19T05:19:28;26.23;;;21.50;;
10134;SDS011;5107;48.850;8.924;2022-08-19T05:22:13;25.53;;;20.90;;
10134;SDS011;5107;48.850;8.924;2022-08-19T05:25:00;25.70;;;21.27;;
10134;SDS011;5107;48.850;8.924;2022-08-19T05:27:31;25.50;;;21.20;;
10134;SDS011;5107;48.850;8.924;2022-08-19T05:29:59;25.17;;;20.30;;
10134;SDS011;5107;48.850;8.924;2022-08-19T05:32:27;24.97;;;20.17;;
10134;SDS011;5107;48.850;8.924;2022-08-19T05:34:54;24.93;;;20.13;;
10134;SDS011;5107;48.850;8.924;2022-08-19T05:37:22;27.33;;;22.97;;
10134;SDS011;5107;48.850;8.924;2022-08-19T05:39:51;26.87;;;21.33;;
10134;SDS011;5107;48.850;8.924;2022-08-19T05:42:20;25.80;;;20.47;;
10134;SDS011;5107;48.850;8.924;2022-08-19T05:44:48;25.17;;;21.10;;
10134;SDS011;5107;48.850;8.924;2022-08-19T05:47:18;26.67;;;22.00;;
10134;SDS011;5107;48.850;8.924;2022-08-19T05:49:46;27.00;;;20.73;;
10134;SDS011;5107;48.850;8.924;2022-08-19T05:52:15;24.90;;;20.80;;
10134;SDS011;5107;48.850;8.924;2022-08-19T05:54:42;24.47;;;20.73;;
10134;SDS011;5107;48.850;8.924;2022-08-19T05:57:14;26.63;;;21.63;;
10134;SDS011;5107;48.850;8.924;2022-08-19T05:59:41;25.07;;;21.23;;
10134;SDS011;5107;48.850;8.924;2022-08-19T06:02:17;26.23;;;20.70;;
10134;SDS011;5107;48.850;8.924;2022-08-19T06:04:45;24.60;;;19.70;;
10134;SDS011;5107;48.850;8.924;2022-08-19T06:07:14;49.93;;;37.80;;
10134;SDS011;5107;48.850;8.924;2022-08-19T06:09:42;29.50;;;24.23;;
10134;SDS011;5107;48.850;8.924;2022-08-19T06:12:09;28.40;;;22.33;;
10134;SDS011;5107;48.850;8.924;2022-08-19T06:14:36;27.53;;;21.57;;
10134;SDS011;5107;48.850;8.924;2022-08-19T06:17:03;27.10;;;19.90;;
10134;SDS011;5107;48.850;8.924;2022-08-19T06:19:32;28.10;;;20.70;;
10134;SDS011;5107;48.850;8.924;2022-08-19T06:21:59;25.90;;;19.73;;
10134;SDS011;5107;48.850;8.924;2022-08-19T06:24:27;23.40;;;18.97;;
10134;SDS011;5107;48.850;8.924;2022-08-19T06:26:57;24.50;;;19.87;;
10134;SDS011;5107;48.850;8.924;2022-08-19T06:29:26;23.57;;;19.70;;
10134;SDS011;5107;48.850;8.924;2022-08-19T06:31:55;23.57;;;18.80;;
10134;SDS011;5107;48.850;8.924;2022-08-19T06:34:25;24.53;;;20.07;;
10134;SDS011;5107;48.850;8.924;2022-08-19T06:36:55;23.87;;;19.43;;
10134;SDS011;5107;48.850;8.924;2022-08-19T06:39:27;24.97;;;19.43;;
10134;SDS011;5107;48.850;8.924;2022-08-19T06:41:58;22.03;;;18.17;;
10134;SDS011;5107;48.850;8.924;2022-08-19T06:44:29;21.83;;;17.60;;
10134;SDS011;5107;48.850;8.924;2022-08-19T06:47:01;23.03;;;18.63;;
10134;SDS011;5107;48.850;8.924;2022-08-19T06:49:30;23.10;;;18.50;;
10134;SDS011;5107;48.850;8.924;2022-08-19T06:52:00;20.83;;;18.60;;
10134;SDS011;5107;48.850;8.924;2022-08-19T06:54:28;18.37;;;16.43;;
10134;SDS011;5107;48.850;8.924;2022-08-19T06:56:56;20.70;;;17.13;;
10134;SDS011;5107;48.850;8.924;2022-08-19T06:59:24;22.10;;;18.83;;
10134;SDS011;5107;48.850;8.924;2022-08-19T07:01:53;21.97;;;18.17;;
10134;SDS011;5107;48.850;8.924;2022-08-19T07:04:24;21.23;;;17.43;;
10134;SDS011;5107;48.850;8.924;2022-08-19T07:06:56;22.30;;;17.97;;
10134;SDS011;5107;48.850;8.924;2022-08-19T07:09:27;20.73;;;17.87;;
10134;SDS011;5107;48.850;8.924;2022-08-19T07:11:55;20.40;;;18.00;;
10134;SDS011;5107;48.850;8.924;2022-08-19T07:14:23;22.00;;;17.57;;
10134;SDS011;5107;48.850;8.924;2022-08-19T07:16:53;23.40;;;18.73;;
10134;SDS011;5107;48.850;8.924;2022-08-19T07:19:23;21.97;;;17.80;;
10134;SDS011;5107;48.850;8.924;2022-08-19T07:21:53;21.07;;;17.73;;
10134;SDS011;5107;48.850;8.924;2022-08-19T07:24:23;20.57;;;17.70;;
10134;SDS011;5107;48.850;8.924;2022-08-19T07:26:52;21.63;;;17.40;;
10134;SDS011;5107;48.850;8.924;2022-08-19T07:29:22;20.47;;;16.97;;
10134;SDS011;5107;48.850;8.924;2022-08-19T07:31:49;20.80;;;17.67;;
10134;SDS011;5107;48.850;8.924;2022-08-19T07:34:21;19.83;;;17.73;;
10134;SDS011;5107;48.850;8.924;2022-08-19T07:36:50;19.13;;;16.73;;
10134;SDS011;5107;48.850;8.924;2022-08-19T07:39:21;20.93;;;18.03;;
10134;SDS011;5107;48.850;8.924;2022-08-19T07:41:53;19.13;;;17.03;;
10134;SDS011;5107;48.850;8.924;2022-08-19T07:44:22;20.40;;;17.07;;
10134;SDS011;5107;48.850;8.924;2022-08-19T07:46:51;23.63;;;17.70;;
10134;SDS011;5107;48.850;8.924;2022-08-19T07:49:22;18.90;;;16.50;;
10134;SDS011;5107;48.850;8.924;2022-08-19T07:51:52;18.63;;;16.20;;
10134;SDS011;5107;48.850;8.924;2022-08-19T07:54:24;18.13;;;15.33;;
10134;SDS011;5107;48.850;8.924;2022-08-19T07:56:53;21.63;;;16.70;;
10134;SDS011;5107;48.850;8.924;2022-08-19T07:59:21;20.27;;;16.83;;
10134;SDS011;5107;48.850;8.924;2022-08-19T08:01:49;19.33;;;17.20;;
10134;SDS011;5107;48.850;8.924;2022-08-19T08:04:18;18.93;;;15.63;;
10134;SDS011;5107;48.850;8.924;2022-08-19T08:07:03;19.07;;;16.43;;
10134;SDS011;5107;48.850;8.924;2022-08-19T08:09:49;19.77;;;16.03;;
10134;SDS011;5107;48.850;8.924;2022-08-19T08:12:18;17.73;;;15.82;;
10134;SDS011;5107;48.850;8.924;2022-08-19T08:14:54;18.93;;;16.23;;
10134;SDS011;5107;48.850;8.924;2022-08-19T08:17:24;18.83;;;15.23;;
10134;SDS011;5107;48.850;8.924;2022-08-19T08:19:53;16.88;;;14.95;;
10134;SDS011;5107;48.850;8.924;2022-08-19T08:22:22;16.98;;;15.05;;
10134;SDS011;5107;48.850;8.924;2022-08-19T08:25:06;17.52;;;15.68;;
10134;SDS011;5107;48.850;8.924;2022-08-19T08:27:37;17.35;;;14.60;;
10134;SDS011;5107;48.850;8.924;2022-08-19T08:30:06;17.02;;;14.93;;
10134;SDS011;5107;48.850;8.924;2022-08-19T08:32:35;15.60;;;13.95;;
10134;SDS011;5107;48.850;8.924;2022-08-19T08:35:03;15.88;;;14.27;;
10134;SDS011;5107;48.850;8.924;2022-08-19T08:37:31;16.15;;;14.27;;
10134;SDS011;5107;48.850;8.924;2022-08-19T08:39:58;16.52;;;14.82;;
10134;SDS011;5107;48.850;8.924;2022-08-19T08:42:30;15.45;;;13.85;;
10134;SDS011;5107;48.850;8.924;2022-08-19T08:45:03;17.50;;;14.05;;
10134;SDS011;5107;48.850;8.924;2022-08-19T08:47:41;17.35;;;13.68;;
10134;SDS011;5107;48.850;8.924;2022-08-19T08:50:16;14.82;;;13.23;;
10134;SDS011;5107;48.850;8.924;2022-08-19T08:52:50;17.00;;;15.13;;
10134;SDS011;5107;48.850;8.924;2022-08-19T08:55:23;17.70;;;15.60;;
10134;SDS011;5107;48.850;8.924;2022-08-19T08:57:55;17.02;;;15.18;;
10134;SDS011;5107;48.850;8.924;2022-08-19T09:00:29;18.42;;;14.40;;
10134;SDS011;5107;48.850;8.924;2022-08-19T09:03:00;16.58;;;14.63;;
10134;SDS011;5107;48.850;8.924;2022-08-19T09:05:33;18.02;;;14.38;;
10134;SDS011;5107;48.850;8.924;2022-08-19T09:08:12;16.00;;;14.30;;
10134;SDS011;5107;48.850;8.924;2022-08-19T09:10:46;15.25;;;13.65;;
10134;SDS011;5107;48.850;8.924;2022-08-19T09:13:20;14.82;;;13.32;;
10134;SDS011;5107;48.850;8.924;2022-08-19T09:15:56;16.33;;;13.60;;
10134;SDS011;5107;48.850;8.924;2022-08-19T09:18:38;15.63;;;13.95;;
10134;SDS011;5107;48.850;8.924;2022-08-19T09:21:08;15.27;;;13.73;;
10134;SDS011;5107;48.850;8.924;2022-08-19T09:23:35;16.75;;;14.05;;
10134;SDS011;5107;48.850;8.924;2022-08-19T09:26:06;15.93;;;14.23;;
10134;SDS011;5107;48.850;8.924;2022-08-19T09:28:40;15.07;;;13.45;;
10134;SDS011;5107;48.850;8.924;2022-08-19T09:31:09;14.38;;;12.95;;
10134;SDS011;5107;48.850;8.924;2022-08-19T09:33:36;14.63;;;13.15;;
10134;SDS011;5107;48.850;8.924;2022-08-19T09:36:04;13.63;;;12.18;;
10134;SDS011;5107;48.850;8.924;2022-08-19T09:38:34;15.35;;;12.85;;
10134;SDS011;5107;48.850;8.924;2022-08-19T09:41:06;13.68;;;11.65;;
10134;SDS011;5107;48.850;8.924;2022-08-19T09:43:36;13.50;;;12.15;;
10134;SDS011;5107;48.850;8.924;2022-08-19T09:46:05;13.35;;;11.95;;
10134;SDS011;5107;48.850;8.924;2022-08-19T09:48:34;13.15;;;11.57;;
10134;SDS011;5107;48.850;8.924;2022-08-19T09:51:02;12.90;;;11.35;;
10134;SDS011;5107;48.850;8.924;2022-08-19T09:53:31;10.90;;;9.82;;
10134;SDS011;5107;48.850;8.924;2022-08-19T09:55:58;12.18;;;10.88;;
10134;SDS011;5107;48.850;8.924;2022-08-19T09:58:26;14.45;;;10.90;;
10134;SDS011;5107;48.850;8.924;2022-08-19T10:00:55;11.75;;;10.32;;
10134;SDS011;5107;48.850;8.924;2022-08-19T10:03:25;13.05;;;10.98;;
10134;SDS011;5107;48.850;8.924;2022-08-19T10:05:54;12.43;;;11.13;;
10134;SDS011;5107;48.850;8.924;2022-08-19T10:08:24;11.43;;;10.23;;
10134;SDS011;5107;48.850;8.924;2022-08-19T10:10:55;14.93;;;10.27;;
10134;SDS011;5107;48.850;8.924;2022-08-19T10:13:24;11.18;;;9.98;;
10134;SDS011;5107;48.850;8.924;2022-08-19T10:15:55;10.50;;;9.15;;
10134;SDS011;5107;48.850;8.924;2022-08-19T10:18:29;9.80;;;8.77;;
10134;SDS011;5107;48.850;8.924;2022-08-19T10:21:02;9.55;;;8.57;;
10134;SDS011;5107;48.850;8.924;2022-08-19T10:23:36;9.52;;;8.57;;
10134;SDS011;5107;48.850;8.924;2022-08-19T10:26:06;9.68;;;8.77;;
10134;SDS011;5107;48.850;8.924;2022-08-19T10:28:34;9.57;;;8.68;;
10134;SDS011;5107;48.850;8.924;2022-08-19T10:31:05;8.80;;;8.00;;
10134;SDS011;5107;48.850;8.924;2022-08-19T10:33:36;9.52;;;8.63;;
10134;SDS011;5107;48.850;8.924;2022-08-19T10:36:05;9.43;;;8.55;;
10134;SDS011;5107;48.850;8.924;2022-08-19T10:38:36;10.25;;;9.15;;
10134;SDS011;5107;48.850;8.924;2022-08-19T10:41:07;10.15;;;9.07;;
10134;SDS011;5107;48.850;8.924;2022-08-19T10:43:36;10.32;;;9.25;;
10134;SDS011;5107;48.850;8.924;2022-08-19T10:46:04;12.35;;;10.48;;
10134;SDS011;5107;48.850;8.924;2022-08-19T10:48:32;10.70;;;9.27;;
10134;SDS011;5107;48.850;8.924;2022-08-19T10:51:01;13.05;;;9.30;;
10134;SDS011;5107;48.850;8.924;2022-08-19T10:53:47;11.02;;;9.27;;
10134;SDS011;5107;48.850;8.924;2022-08-19T10:56:15;9.68;;;8.68;;
10134;SDS011;5107;48.850;8.924;2022-08-19T10:59:00;9.32;;;8.43;;
10134;SDS011;5107;48.850;8.924;2022-08-19T11:01:28;8.60;;;7.78;;
10134;SDS011;5107;48.850;8.924;2022-08-19T11:04:00;8.90;;;7.70;;
10134;SDS011;5107;48.850;8.924;2022-08-19T11:06:27;10.40;;;8.13;;
10134;SDS011;5107;48.850;8.924;2022-08-19T11:08:55;8.00;;;7.20;;
10134;SDS011;5107;48.850;8.924;2022-08-19T11:11:22;8.10;;;7.40;;
10134;SDS011;5107;48.850;8.924;2022-08-19T11:13:50;8.82;;;7.95;;
10134;SDS011;5107;48.850;8.924;2022-08-19T11:16:19;7.93;;;7.13;;
10134;SDS011;5107;48.850;8.924;2022-08-19T11:18:49;9.80;;;7.82;;
10134;SDS011;5107;48.850;8.924;2022-08-19T11:21:21;7.88;;;7.07;;
10134;SDS011;5107;48.850;8.924;2022-08-19T11:23:52;7.22;;;6.57;;
10134;SDS011;5107;48.850;8.924;2022-08-19T11:26:23;7.10;;;6.13;;
10134;SDS011;5107;48.850;8.924;2022-08-19T11:28:51;7.72;;;6.63;;
10134;SDS011;5107;48.850;8.924;2022-08-19T11:31:20;7.40;;;6.60;;
10134;SDS011;5107;48.850;8.924;2022-08-19T11:33:53;10.15;;;6.40;;
10134;SDS011;5107;48.850;8.924;2022-08-19T11:36:23;7.35;;;6.15;;
10134;SDS011;5107;48.850;8.924;2022-08-19T11:38:50;6.45;;;5.85;;
10134;SDS011;5107;48.850;8.924;2022-08-19T11:41:18;6.45;;;5.85;;
10134;SDS011;5107;48.850;8.924;2022-08-19T11:43:49;7.70;;;6.25;;
10134;SDS011;5107;48.850;8.924;2022-08-19T11:46:18;6.72;;;6.13;;
10134;SDS011;5107;48.850;8.924;2022-08-19T11:48:46;6.35;;;5.75;;
10134;SDS011;5107;48.850;8.924;2022-08-19T11:51:15;6.97;;;6.32;;
10134;SDS011;5107;48.850;8.924;2022-08-19T11:53:46;6.97;;;6.38;;
10134;SDS011;5107;48.850;8.924;2022-08-19T11:56:13;6.20;;;5.63;;
10134;SDS011;5107;48.850;8.924;2022-08-19T11:58:40;6.72;;;6.10;;
10134;SDS011;5107;48.850;8.924;2022-08-19T12:01:08;6.40;;;5.80;;
10134;SDS011;5107;48.850;8.924;2022-08-19T12:03:37;7.03;;;6.32;;
10134;SDS011;5107;48.850;8.924;2022-08-19T12:06:05;7.15;;;6.55;;
10134;SDS011;5107;48.850;8.924;2022-08-19T12:08:35;7.63;;;6.30;;
10134;SDS011;5107;48.850;8.924;2022-08-19T12:11:03;6.90;;;6.25;;
10134;SDS011;5107;48.850;8.924;2022-08-19T12:13:33;6.28;;;5.78;;
10134;SDS011;5107;48.850;8.924;2022-08-19T12:16:01;6.28;;;5.55;;
10134;SDS011;5107;48.850;8.924;2022-08-19T12:18:34;6.05;;;5.53;;
10134;SDS011;5107;48.850;8.924;2022-08-19T12:21:01;6.13;;;5.63;;
10134;SDS011;5107;48.850;8.924;2022-08-19T12:23:29;6.20;;;5.70;;
10134;SDS011;5107;48.850;8.924;2022-08-19T12:25:56;6.63;;;6.03;;
10134;SDS011;5107;48.850;8.924;2022-08-19T12:28:25;6.50;;;5.90;;
10134;SDS011;5107;48.850;8.924;2022-08-19T12:30:52;7.15;;;6.03;;
10134;SDS011;5107;48.850;8.924;2022-08-19T12:33:19;6.32;;;5.72;;
10134;SDS011;5107;48.850;8.924;2022-08-19T12:35:49;7.25;;;6.65;;
10134;SDS011;5107;48.850;8.924;2022-08-19T12:38:17;6.80;;;6.30;;
10134;SDS011;5107;48.850;8.924;2022-08-19T12:40:44;7.03;;;6.43;;
10134;SDS011;5107;48.850;8.924;2022-08-19T12:43:13;6.93;;;6.25;;
10134;SDS011;5107;48.850;8.924;2022-08-19T12:45:43;6.72;;;6.13;;
10134;SDS011;5107;48.850;8.924;2022-08-19T12:48:10;6.53;;;6.03;;
10134;SDS011;5107;48.850;8.924;2022-08-19T12:50:38;6.47;;;5.88;;
10134;SDS011;5107;48.850;8.924;2022-08-19T12:53:06;6.32;;;5.82;;
10134;SDS011;5107;48.850;8.924;2022-08-19T12:55:33;6.97;;;5.82;;
10134;SDS011;5107;48.850;8.924;2022-08-19T12:58:00;6.93;;;6.32;;
10134;SDS011;5107;48.850;8.924;2022-08-19T13:00:27;6.50;;;6.00;;
10134;SDS011;5107;48.850;8.924;2022-08-19T13:02:57;6.60;;;5.93;;
10134;SDS011;5107;48.850;8.924;2022-08-19T13:05:25;6.45;;;5.85;;
10134;SDS011;5107;48.850;8.924;2022-08-19T13:07:56;6.60;;;6.10;;
10134;SDS011;5107;48.850;8.924;2022-08-19T13:10:26;6.35;;;5.75;;
10134;SDS011;5107;48.850;8.924;2022-08-19T13:13:00;6.93;;;6.28;;
10134;SDS011;5107;48.850;8.924;2022-08-19T13:15:32;6.18;;;5.68;;
10134;SDS011;5107;48.850;8.924;2022-08-19T13:18:02;7.13;;;6.53;;
10134;SDS011;5107;48.850;8.924;2022-08-19T13:20:29;6.93;;;6.32;;
10134;SDS011;5107;48.850;8.924;2022-08-19T13:22:56;6.70;;;6.10;;
10134;SDS011;5107;48.850;8.924;2022-08-19T13:25:23;7.03;;;6.43;;
10134;SDS011;5107;48.850;8.924;2022-08-19T13:27:51;7.30;;;6.60;;
10134;SDS011;5107;48.850;8.924;2022-08-19T13:30:20;6.82;;;6.22;;
10134;SDS011;5107;48.850;8.924;2022-08-19T13:33:07;6.93;;;6.32;;
10134;SDS011;5107;48.850;8.924;2022-08-19T13:35:39;7.55;;;6.80;;
10134;SDS011;5107;48.850;8.924;2022-08-19T13:38:11;7.60;;;6.80;;
10134;SDS011;5107;48.850;8.924;2022-08-19T13:40:40;7.10;;;6.40;;
10134;SDS011;5107;48.850;8.924;2022-08-19T13:43:08;8.00;;;6.55;;
10134;SDS011;5107;48.850;8.924;2022-08-19T13:45:35;7.28;;;6.57;;
10134;SDS011;5107;48.850;8.924;2022-08-19T13:48:03;7.28;;;6.68;;
10134;SDS011;5107;48.850;8.924;2022-08-19T13:50:34;7.40;;;6.78;;
10134;SDS011;5107;48.850;8.924;2022-08-19T13:53:05;7.55;;;6.95;;
10134;SDS011;5107;48.850;8.924;2022-08-19T13:55:33;7.80;;;7.10;;
10134;SDS011;5107;48.850;8.924;2022-08-19T13:58:03;7.57;;;6.97;;
10134;SDS011;5107;48.850;8.924;2022-08-19T14:00:31;7.70;;;7.00;;
10134;SDS011;5107;48.850;8.924;2022-08-19T14:03:01;7.85;;;7.25;;
10134;SDS011;5107;48.850;8.924;2022-08-19T14:05:31;7.57;;;6.97;;
10134;SDS011;5107;48.850;8.924;2022-08-19T14:07:59;7.40;;;6.80;;
10134;SDS011;5107;48.850;8.924;2022-08-19T14:10:27;7.95;;;7.22;;
10134;SDS011;5107;48.850;8.924;2022-08-19T14:12:59;7.70;;;7.00;;
10134;SDS011;5107;48.850;8.924;2022-08-19T14:15:28;7.22;;;6.63;;
10134;SDS011;5107;48.850;8.924;2022-08-19T14:17:56;7.18;;;6.57;;
10134;SDS011;5107;48.850;8.924;2022-08-19T14:20:23;8.35;;;7.57;;
10134;SDS011;5107;48.850;8.924;2022-08-19T14:22:53;7.28;;;6.68;;
10134;SDS011;5107;48.850;8.924;2022-08-19T14:25:21;7.88;;;7.28;;
10134;SDS011;5107;48.850;8.924;2022-08-19T14:27:52;7.57;;;6.97;;
10134;SDS011;5107;48.850;8.924;2022-08-19T14:30:21;13.13;;;11.90;;
10134;SDS011;5107;48.850;8.924;2022-08-19T14:32:50;8.23;;;7.55;;
10134;SDS011;5107;48.850;8.924;2022-08-19T14:35:17;8.68;;;7.88;;
10134;SDS011;5107;48.850;8.924;2022-08-19T14:37:46;7.88;;;7.18;;
10134;SDS011;5107;48.850;8.924;2022-08-19T14:40:17;8.18;;;7.38;;
10134;SDS011;5107;48.850;8.924;2022-08-19T14:42:46;7.68;;;6.97;;
10134;SDS011;5107;48.850;8.924;2022-08-19T14:45:13;7.68;;;7.07;;
10134;SDS011;5107;48.850;8.924;2022-08-19T14:47:40;11.32;;;7.32;;
10134;SDS011;5107;48.850;8.924;2022-08-19T14:50:09;7.82;;;7.18;;
10134;SDS011;5107;48.850;8.924;2022-08-19T14:52:37;7.95;;;7.15;;
10134;SDS011;5107;48.850;8.924;2022-08-19T14:55:05;8.13;;;7.43;;
10134;SDS011;5107;48.850;8.924;2022-08-19T14:57:34;7.97;;;7.38;;